createdAt,value
2023-05-21T00:02:34.449Z,13.93
2023-05-21T00:12:58.097Z,15.25
2023-05-21T00:23:26.186Z,16.33
2023-05-21T00:33:48.185Z,16.08
2023-05-21T00:44:14.126Z,15.38
2023-05-21T01:05:00.644Z,16.73
2023-05-21T01:15:22.843Z,17.42
2023-05-21T01:25:46.518Z,15.63
2023-05-21T01:36:15.838Z,16.70
2023-05-21T01:46:39.502Z,16.55
2023-05-21T01:57:01.652Z,16.65
2023-05-21T02:07:33.764Z,18.23
2023-05-21T02:17:56.449Z,16.83
2023-05-21T02:28:19.581Z,19.25
2023-05-21T02:38:43.805Z,18.38
2023-05-21T02:49:06.689Z,18.92
2023-05-21T02:59:28.275Z,20.38
2023-05-21T03:09:51.437Z,19.48
2023-05-21T03:20:16.554Z,20.10
2023-05-21T03:30:40.037Z,20.53
2023-05-21T03:41:22.346Z,18.83
2023-05-21T03:51:54.055Z,21.83
2023-05-21T04:02:16.044Z,18.45
2023-05-21T04:12:39.668Z,21.25
2023-05-21T04:23:02.997Z,19.50
2023-05-21T04:33:27.138Z,19.55
2023-05-21T04:43:48.868Z,19.80
2023-05-21T04:54:19.227Z,19.13
2023-05-21T05:04:41.276Z,18.30
2023-05-21T05:15:08.369Z,18.52
2023-05-21T05:25:31.281Z,18.48
2023-05-21T05:35:54.862Z,17.92
2023-05-21T05:46:16.946Z,17.65
2023-05-21T05:56:41.373Z,16.00
2023-05-21T06:07:03.320Z,16.58
2023-05-21T06:17:26.449Z,16.15
2023-05-21T06:27:48.777Z,16.02
2023-05-21T06:38:17.877Z,15.75
2023-05-21T06:48:39.430Z,16.00
2023-05-21T06:59:02.526Z,15.35
2023-05-21T07:09:26.278Z,13.73
2023-05-21T07:19:49.611Z,13.93
2023-05-21T07:30:12.852Z,14.32
2023-05-21T07:40:36.648Z,12.85
2023-05-21T07:50:59.983Z,12.45
2023-05-21T08:01:24.005Z,11.70
2023-05-21T08:11:46.561Z,11.73
2023-05-21T08:22:10.138Z,12.18
2023-05-21T08:32:36.692Z,10.05
2023-05-21T08:42:59.773Z,10.27
2023-05-21T08:53:31.264Z,9.73
2023-05-21T09:04:05.033Z,9.68
2023-05-21T09:14:36.678Z,8.00
2023-05-21T09:25:09.054Z,7.75
2023-05-21T09:35:31.788Z,7.57
2023-05-21T09:45:58.993Z,7.13
2023-05-21T09:56:26.214Z,6.28
2023-05-21T10:06:50.301Z,5.78
2023-05-21T10:17:13.747Z,5.57
2023-05-21T10:27:38.079Z,5.90
2023-05-21T10:38:00.871Z,6.40
2023-05-21T10:48:42.042Z,6.07
2023-05-21T10:59:29.889Z,5.13
2023-05-21T11:09:52.878Z,5.90
2023-05-21T11:20:15.064Z,5.60
2023-05-21T11:30:40.351Z,6.45
2023-05-21T11:41:04.281Z,5.78
2023-05-21T11:51:27.105Z,6.25
2023-05-21T12:01:50.848Z,6.13
2023-05-21T12:12:18.333Z,4.97
2023-05-21T12:22:43.138Z,6.03
2023-05-21T12:33:08.360Z,6.10
2023-05-21T12:43:35.273Z,6.13
2023-05-21T12:53:58.691Z,5.88
2023-05-21T13:04:21.174Z,5.50
2023-05-21T13:14:44.208Z,6.03
2023-05-21T13:25:06.181Z,6.10
2023-05-21T13:35:30.352Z,5.45
2023-05-21T13:46:01.933Z,5.60
2023-05-21T13:56:26.713Z,5.22
2023-05-21T14:06:48.637Z,6.00
2023-05-21T14:17:12.690Z,5.90
2023-05-21T14:27:34.554Z,5.88
2023-05-21T14:37:58.473Z,5.55
2023-05-21T14:48:23.038Z,5.30
2023-05-21T14:58:45.932Z,5.35
2023-05-21T15:09:07.939Z,5.35
2023-05-21T15:29:54.450Z,4.95
2023-05-21T15:40:23.335Z,4.88
2023-05-21T15:50:48.196Z,4.70
2023-05-21T16:01:12.110Z,5.60
2023-05-21T16:11:36.740Z,4.90
2023-05-21T16:22:01.570Z,4.88
2023-05-21T16:32:24.551Z,4.50
2023-05-21T16:42:47.799Z,4.47
2023-05-21T16:53:09.928Z,5.13
2023-05-21T17:03:34.083Z,4.75
2023-05-21T17:13:56.439Z,4.25
2023-05-21T17:24:19.836Z,4.55
2023-05-21T17:34:41.324Z,4.68
2023-05-21T17:45:04.208Z,4.45
2023-05-21T17:55:25.875Z,4.30
2023-05-21T18:05:49.226Z,3.60
2023-05-21T18:26:33.746Z,3.30
2023-05-21T18:36:58.718Z,4.33
2023-05-21T18:47:23.075Z,4.10
2023-05-21T18:57:52.138Z,4.78
2023-05-21T19:08:15.401Z,4.18
2023-05-21T19:18:38.133Z,4.03
2023-05-21T19:29:00.971Z,4.75
2023-05-21T19:39:22.555Z,4.97
2023-05-21T19:49:45.663Z,4.70
2023-05-21T20:00:11.114Z,4.60
2023-05-21T20:10:36.980Z,4.18
2023-05-21T20:20:58.813Z,4.33
2023-05-21T20:31:27.310Z,4.53
2023-05-21T20:41:48.742Z,4.53
2023-05-21T20:52:12.224Z,4.63
2023-05-21T21:03:02.204Z,4.50
2023-05-21T21:13:25.450Z,4.40
2023-05-21T21:23:46.964Z,4.38
2023-05-21T21:34:10.343Z,4.32
2023-05-21T21:44:32.121Z,4.70
2023-05-21T21:54:57.705Z,4.20
2023-05-21T22:05:19.604Z,4.32
2023-05-21T22:15:49.016Z,5.03
2023-05-21T22:26:10.933Z,4.03
2023-05-21T22:36:34.531Z,4.90
2023-05-21T22:47:00.150Z,4.53
2023-05-21T22:57:23.440Z,4.45
2023-05-21T23:07:46.973Z,3.97
2023-05-21T23:18:11.490Z,3.80
2023-05-21T23:28:33.510Z,4.60
2023-05-21T23:38:59.187Z,4.30
2023-05-21T23:49:21.165Z,3.80
2023-05-21T23:59:44.498Z,4.32
